Time;durP1;ratioP1;P1;durP2;ratioP2;P2;SDS_P1;SDS_P2;PMS_P1;PMS_P2;Temp;Humidity;BMP_temperature;BMP_pressure;BME280_temperature;BME280_humidity;BME280_pressure;Samples;Min_cycle;Max_cycle;Signal;HPM_P1;HPM_P2
2022/01/03 00:01:09;;;;;;;19.87;9.43;;;;;;;7.08;88.71;96918.66;5076658;28;20447;-36
2022/01/03 00:03:38;;;;;;;19.07;9.37;;;;;;;7.22;89.14;96926.50;5076387;28;20526;-37
2022/01/03 00:06:05;;;;;;;18.77;9.60;;;;;;;7.20;88.98;96933.81;5076304;28;20443;-36
2022/01/03 00:08:33;;;;;;;10.70;7.67;;;;;;;7.15;88.95;96927.34;5076253;28;20487;-37
2022/01/03 00:11:00;;;;;;;13.97;7.60;;;;;;;7.12;88.73;96930.41;5076578;28;20443;-36
2022/01/03 00:13:28;;;;;;;26.90;8.40;;;;;;;7.12;89.54;96926.94;5076289;28;20458;-35
2022/01/03 00:15:56;;;;;;;15.30;10.20;;;;;;;7.14;89.65;96912.53;5076005;28;20468;-35
2022/01/03 00:18:24;;;;;;;13.03;6.33;;;;;;;7.17;89.62;96914.72;5076118;28;20501;-36
2022/01/03 00:20:59;;;;;;;12.03;6.90;;;;;;;7.16;89.65;96913.13;5076087;28;20440;-36
2022/01/03 00:23:28;;;;;;;8.87;6.60;;;;;;;7.16;89.55;96915.78;5076107;28;20468;-36
2022/01/03 00:26:00;;;;;;;12.97;9.70;;;;;;;7.17;89.38;96917.38;5076029;28;20446;-36
2022/01/03 00:28:34;;;;;;;16.70;9.87;;;;;;;7.17;89.58;96912.09;5075991;28;20886;-34
2022/01/03 00:31:02;;;;;;;24.10;12.07;;;;;;;7.17;89.69;96903.38;5076243;28;20436;-35
2022/01/03 00:33:30;;;;;;;25.03;11.37;;;;;;;7.17;89.72;96898.88;5075955;28;20915;-35
2022/01/03 00:36:01;;;;;;;27.07;11.10;;;;;;;7.19;89.79;96917.19;5075853;28;20448;-36
2022/01/03 00:38:30;;;;;;;25.50;12.87;;;;;;;7.21;89.74;96909.06;5075430;28;20565;-36
2022/01/03 00:40:59;;;;;;;22.83;12.43;;;;;;;7.16;90.10;96912.28;5075779;28;20436;-36
2022/01/03 00:43:28;;;;;;;17.03;10.30;;;;;;;7.21;89.61;96911.69;5075615;28;20443;-35
2022/01/03 00:45:57;;;;;;;10.03;7.70;;;;;;;7.18;89.18;96904.97;5075675;28;20817;-34
2022/01/03 00:48:25;;;;;;;15.03;7.37;;;;;;;7.18;89.41;96904.97;5075819;28;20832;-34
2022/01/03 00:50:53;;;;;;;7.90;4.47;;;;;;;7.01;89.01;96872.16;5075861;28;20530;-36
2022/01/03 00:53:22;;;;;;;12.20;6.70;;;;;;;7.14;89.07;96885.28;5076284;28;20448;-34
2022/01/03 00:56:03;;;;;;;15.03;8.20;;;;;;;6.94;88.43;96857.19;5075535;28;20443;-35
2022/01/03 00:58:36;;;;;;;12.23;6.60;;;;;;;7.06;88.11;96869.72;5075839;28;20435;-35
2022/01/03 01:01:06;;;;;;;8.90;5.40;;;;;;;7.00;87.43;96873.22;5075446;28;20435;-34
2022/01/03 01:03:39;;;;;;;10.87;6.20;;;;;;;6.92;87.73;96863.69;5075347;28;20911;-35
2022/01/03 01:06:08;;;;;;;10.90;7.20;;;;;;;6.68;87.60;96826.44;5075615;28;20451;-35
2022/01/03 01:08:38;;;;;;;14.50;7.90;;;;;;;6.81;88.15;96851.97;5075178;28;20855;-35
2022/01/03 01:11:08;;;;;;;13.17;8.27;;;;;;;6.77;88.62;96845.50;5075636;28;20482;-35
2022/01/03 01:13:36;;;;;;;17.63;10.10;;;;;;;6.70;88.53;96844.72;5075334;28;20444;-35
2022/01/03 01:16:09;;;;;;;19.90;8.40;;;;;;;6.67;88.64;96829.31;5074970;28;20840;-34
2022/01/03 01:18:37;;;;;;;12.60;7.23;;;;;;;6.60;89.30;96839.06;5075067;28;20444;-35
2022/01/03 01:21:05;;;;;;;11.97;7.37;;;;;;;6.60;89.87;96828.53;5074978;28;20448;-35
2022/01/03 01:23:32;;;;;;;12.13;6.23;;;;;;;6.46;90.17;96815.41;5074909;28;20451;-34
2022/01/03 01:28:46;;;;;;;12.80;5.57;;;;;;;6.61;90.90;96824.88;5074954;28;20486;-34
2022/01/03 01:31:17;;;;;;;7.10;6.33;;;;;;;6.65;90.73;96820.81;5074559;28;20532;-34
2022/01/03 01:33:46;;;;;;;13.20;8.50;;;;;;;6.64;90.08;96819.97;5074745;28;20435;-35
2022/01/03 01:36:15;;;;;;;14.27;7.63;;;;;;;6.60;89.59;96797.66;5074627;28;20953;-35
2022/01/03 01:38:47;;;;;;;17.43;7.90;;;;;;;6.55;89.74;96816.78;5075539;28;20447;-34
2022/01/03 01:41:19;;;;;;;10.13;6.30;;;;;;;6.54;89.61;96812.53;5074613;28;20424;-35
2022/01/03 01:43:48;;;;;;;13.87;7.70;;;;;;;6.52;89.69;96805.84;5074563;28;20432;-34
2022/01/03 01:46:18;;;;;;;8.43;6.40;;;;;;;6.51;90.01;96805.03;5074759;28;20789;-36
2022/01/03 01:48:47;;;;;;;6.70;6.00;;;;;;;6.52;90.07;96806.66;5073446;28;20534;-35
2022/01/03 01:51:16;;;;;;;9.53;7.40;;;;;;;6.55;90.10;96800.16;5074645;28;20447;-35
2022/01/03 01:53:47;;;;;;;8.10;6.10;;;;;;;6.56;89.76;96793.88;5074306;28;20444;-34
2022/01/03 01:56:19;;;;;;;9.50;6.93;;;;;;;6.52;89.75;96795.31;5074309;28;20439;-33
2022/01/03 01:59:08;;;;;;;14.10;5.80;;;;;;;6.50;89.67;96797.34;5074509;28;20513;-35
2022/01/03 02:01:43;;;;;;;7.50;5.60;;;;;;;6.50;89.73;96790.22;5074459;28;20503;-34
2022/01/03 02:04:25;;;;;;;7.93;5.17;;;;;;;6.51;89.21;96805.03;5074106;28;20436;-35
2022/01/03 02:06:56;;;;;;;8.30;5.20;;;;;;;6.54;89.76;96788.00;5074334;28;20438;-34
2022/01/03 02:09:39;;;;;;;7.77;6.87;;;;;;;6.57;89.32;96784.91;5074436;28;20485;-33
2022/01/03 02:12:16;;;;;;;6.87;5.30;;;;;;;6.56;89.20;96785.94;5074038;28;20447;-34
2022/01/03 02:14:46;;;;;;;8.73;5.03;;;;;;;6.55;88.94;96790.38;5073823;28;20982;-34
2022/01/03 02:17:14;;;;;;;8.10;5.67;;;;;;;6.44;88.90;96769.97;5073887;28;20447;-34
2022/01/03 02:20:01;;;;;;;13.43;6.70;;;;;;;6.54;89.08;96780.88;5074176;28;20449;-36
2022/01/03 02:22:28;;;;;;;6.70;6.00;;;;;;;6.54;88.62;96772.16;5073740;28;20454;-36
2022/01/03 02:24:55;;;;;;;14.07;8.43;;;;;;;6.50;88.35;96765.69;5074082;28;20881;-36
2022/01/03 02:27:23;;;;;;;13.13;6.40;;;;;;;6.36;88.47;96764.91;5073964;28;20567;-36
2022/01/03 02:29:50;;;;;;;17.10;7.73;;;;;;;6.50;88.50;96770.97;5073753;28;20448;-36
2022/01/03 02:32:18;;;;;;;18.13;8.60;;;;;;;6.53;88.72;96759.97;5073778;28;20941;-36
2022/01/03 02:34:47;;;;;;;8.23;5.00;;;;;;;6.54;88.83;96762.41;5073869;28;20444;-35
2022/01/03 02:37:14;;;;;;;9.67;5.17;;;;;;;6.47;87.57;96758.19;5073928;28;20452;-37
2022/01/03 02:39:42;;;;;;;10.47;5.70;;;;;;;6.41;87.28;96749.28;5073925;28;20448;-35
2022/01/03 02:42:09;;;;;;;17.30;8.27;;;;;;;6.38;87.71;96741.78;5073488;28;20440;-36
2022/01/03 02:44:37;;;;;;;16.37;6.03;;;;;;;6.40;88.52;96733.69;5073809;28;20444;-36
2022/01/03 02:47:04;;;;;;;19.30;9.47;;;;;;;6.38;89.02;96733.88;5073683;28;20443;-37
2022/01/03 02:49:32;;;;;;;9.07;5.70;;;;;;;6.40;88.24;96723.13;5073799;28;20450;-37
2022/01/03 02:52:00;;;;;;;9.67;5.23;;;;;;;6.41;88.84;96719.44;5073795;28;20443;-35
2022/01/03 02:54:28;;;;;;;10.67;5.80;;;;;;;6.42;88.49;96721.09;5073380;28;20443;-36
2022/01/03 02:56:56;;;;;;;7.57;5.20;;;;;;;6.44;88.94;96714.56;5073737;28;20538;-36
2022/01/03 02:59:23;;;;;;;19.13;6.60;;;;;;;6.47;89.19;96714.13;5073099;28;20451;-36
2022/01/03 03:01:51;;;;;;;6.87;4.70;;;;;;;6.51;89.59;96701.34;5073681;28;20498;-36
2022/01/03 03:04:18;;;;;;;9.70;4.90;;;;;;;6.54;89.32;96699.09;5073680;28;20450;-36
2022/01/03 03:06:45;;;;;;;4.43;4.00;;;;;;;6.55;88.97;96705.97;5072770;28;20823;-36
2022/01/03 03:09:15;;;;;;;6.03;3.60;;;;;;;6.55;88.78;96699.91;5073139;28;20487;-36
2022/01/03 03:11:42;;;;;;;8.43;4.47;;;;;;;6.56;88.55;96701.53;5073287;28;20497;-36
2022/01/03 03:14:09;;;;;;;10.87;5.20;;;;;;;6.54;88.87;96701.75;5073056;28;20455;-36
2022/01/03 03:16:36;;;;;;;8.87;4.93;;;;;;;6.57;89.21;96697.88;5073556;28;20424;-36
2022/01/03 03:19:04;;;;;;;8.77;3.40;;;;;;;6.57;89.14;96693.38;5073392;28;20444;-37
2022/01/03 03:21:31;;;;;;;9.77;5.40;;;;;;;6.58;89.04;96683.63;5072982;28;20447;-35
2022/01/03 03:23:59;;;;;;;7.63;5.00;;;;;;;6.56;88.31;96683.88;5073094;28;20943;-36
2022/01/03 03:26:28;;;;;;;21.10;5.43;;;;;;;6.57;88.61;96687.31;5073116;28;20444;-36
2022/01/03 03:28:55;;;;;;;6.40;5.30;;;;;;;6.60;88.90;96683.44;5073314;28;20982;-36
2022/01/03 03:31:22;;;;;;;4.90;3.30;;;;;;;6.61;89.01;96677.94;5073071;28;20444;-34
2022/01/03 03:33:50;;;;;;;8.73;5.40;;;;;;;6.60;88.19;96675.53;5073386;28;20539;-35
2022/01/03 03:36:17;;;;;;;13.00;5.83;;;;;;;6.55;88.30;96671.69;5072950;28;20531;-35
2022/01/03 03:38:44;;;;;;;14.83;7.53;;;;;;;6.54;87.89;96672.72;5073407;28;20602;-33
2022/01/03 03:41:12;;;;;;;13.57;7.50;;;;;;;6.52;88.30;96666.84;5073238;28;20462;-36
2022/01/03 03:43:40;;;;;;;18.93;9.40;;;;;;;6.50;88.16;96671.53;5072997;28;20444;-36
2022/01/03 03:46:08;;;;;;;13.73;8.90;;;;;;;6.48;87.93;96676.22;5072940;28;20440;-34
2022/01/03 03:48:36;;;;;;;12.80;8.30;;;;;;;6.48;88.34;96684.13;5073074;28;20502;-34
2022/01/03 03:51:03;;;;;;;14.60;6.13;;;;;;;6.44;88.12;96668.94;5073218;28;20466;-36
2022/01/03 03:53:30;;;;;;;10.73;5.80;;;;;;;6.41;88.05;96654.34;5072787;28;20436;-34
2022/01/03 03:55:58;;;;;;;13.20;8.13;;;;;;;6.42;88.49;96665.72;5073098;28;20471;-35
2022/01/03 03:58:25;;;;;;;22.47;10.07;;;;;;;6.43;88.43;96659.41;5072747;28;20443;-37
2022/01/03 04:00:54;;;;;;;48.90;18.20;;;;;;;6.44;88.39;96672.38;5072656;28;20459;-36
2022/01/03 04:03:21;;;;;;;32.00;15.10;;;;;;;6.47;88.12;96658.75;5072979;28;20442;-36
2022/01/03 04:05:48;;;;;;;35.57;13.50;;;;;;;6.50;87.92;96671.53;5072804;28;20974;-35
2022/01/03 04:08:15;;;;;;;24.03;10.87;;;;;;;6.50;87.66;96660.97;5072622;28;20997;-34
2022/01/03 04:10:43;;;;;;;20.33;7.60;;;;;;;6.40;86.95;96654.56;5072590;28;20450;-36
2022/01/03 04:13:10;;;;;;;18.10;8.27;;;;;;;6.43;87.00;96660.22;5075366;28;20454;-34
2022/01/03 04:15:37;;;;;;;23.30;9.03;;;;;;;6.40;87.17;96670.38;5076091;28;20490;-34
2022/01/03 04:18:06;;;;;;;13.97;7.50;;;;;;;6.38;87.59;96662.69;5076113;28;20912;-34
2022/01/03 04:20:33;;;;;;;23.83;9.07;;;;;;;6.41;87.62;96661.44;5076195;28;20448;-34
2022/01/03 04:23:00;;;;;;;28.63;15.40;;;;;;;6.44;88.34;96661.81;5076116;28;20518;-34
2022/01/03 04:25:27;;;;;;;49.00;19.67;;;;;;;6.47;88.20;96668.50;5076385;28;20458;-35
2022/01/03 04:27:55;;;;;;;48.00;21.70;;;;;;;6.46;88.03;96659.78;5075934;28;20490;-34
2022/01/03 04:30:22;;;;;;;42.47;18.53;;;;;;;6.42;87.45;96670.97;5076020;28;20446;-35
2022/01/03 04:32:49;;;;;;;57.70;18.63;;;;;;;6.44;87.79;96661.81;5075987;28;20444;-34
2022/01/03 04:35:18;;;;;;;39.33;15.17;;;;;;;6.28;87.88;96630.69;5075811;28;20444;-34
2022/01/03 04:37:45;;;;;;;13.50;8.40;;;;;;;6.46;86.83;96651.06;5076208;28;20866;-34
2022/01/03 04:40:13;;;;;;;30.13;13.60;;;;;;;6.49;86.65;96651.44;5075915;28;20450;-34
2022/01/03 04:42:40;;;;;;;22.73;10.17;;;;;;;6.53;86.60;96650.00;5075821;28;20961;-36
2022/01/03 04:45:09;;;;;;;13.37;7.47;;;;;;;6.54;85.82;96654.25;5075928;28;20444;-36
2022/01/03 04:47:36;;;;;;;25.57;13.30;;;;;;;6.55;86.18;96663.78;5075719;28;20772;-35
2022/01/03 04:50:04;;;;;;;30.50;17.63;;;;;;;6.57;85.70;96656.47;5075846;28;20570;-36
2022/01/03 04:52:32;;;;;;;26.83;12.33;;;;;;;6.56;85.49;96654.06;5075592;28;20523;-35
2022/01/03 04:55:01;;;;;;;22.00;10.23;;;;;;;6.54;85.35;96648.97;5076422;28;20440;-34
2022/01/03 04:57:28;;;;;;;25.47;9.63;;;;;;;6.50;85.21;96655.72;5075449;28;20450;-35
2022/01/03 04:59:56;;;;;;;23.63;9.40;;;;;;;6.49;85.52;96653.28;5075500;28;20521;-37
2022/01/03 05:02:23;;;;;;;20.87;8.23;;;;;;;6.51;85.46;96651.22;5075378;28;20931;-36
2022/01/03 05:04:50;;;;;;;16.93;10.50;;;;;;;6.52;85.23;96653.66;5075378;28;20535;-36
2022/01/03 05:07:19;;;;;;;29.57;15.70;;;;;;;6.55;84.09;96647.94;5075668;28;20448;-36
2022/01/03 05:09:47;;;;;;;32.20;16.57;;;;;;;6.60;84.20;96651.78;5075536;28;20536;-36
2022/01/03 05:12:16;;;;;;;26.33;11.87;;;;;;;6.63;82.87;96659.28;5075556;28;20467;-37
2022/01/03 05:14:44;;;;;;;31.93;12.73;;;;;;;6.63;82.98;96667.19;5075103;28;20480;-36
2022/01/03 05:17:11;;;;;;;28.37;11.80;;;;;;;6.63;83.20;96668.00;5075047;28;20538;-37
2022/01/03 05:19:38;;;;;;;54.47;26.23;;;;;;;6.65;83.33;96663.31;5075010;28;20818;-36
2022/01/03 05:22:06;;;;;;;31.30;18.00;;;;;;;6.68;83.07;96673.44;5075306;28;20795;-36
2022/01/03 05:24:34;;;;;;;36.43;18.20;;;;;;;6.69;83.26;96674.22;5075311;28;20448;-36
2022/01/03 05:27:03;;;;;;;50.90;20.83;;;;;;;6.69;83.55;96677.69;5075183;28;20450;-36
2022/01/03 05:29:31;;;;;;;154.67;65.87;;;;;;;6.69;83.74;96663.69;5072561;28;20491;-34
2022/01/03 05:31:58;;;;;;;90.77;43.77;;;;;;;6.68;84.51;96656.78;5074769;28;20538;-36
2022/01/03 05:34:25;;;;;;;45.90;24.43;;;;;;;6.68;83.78;96662.06;5074811;28;20970;-35
2022/01/03 05:36:53;;;;;;;69.10;41.60;;;;;;;6.71;84.53;96667.75;5075054;28;20814;-36
2022/01/03 05:39:20;;;;;;;103.03;59.27;;;;;;;6.74;84.27;96666.50;5074788;28;20450;-35
2022/01/03 05:41:47;;;;;;;56.73;30.10;;;;;;;6.72;83.82;96650.88;5074948;28;20453;-36
2022/01/03 05:44:16;;;;;;;34.80;23.60;;;;;;;6.67;83.62;96661.28;5074537;28;20954;-37
2022/01/03 05:46:43;;;;;;;49.87;26.70;;;;;;;6.59;83.72;96647.53;5074524;28;20452;-36
2022/01/03 05:49:11;;;;;;;89.53;43.80;;;;;;;6.48;84.03;96620.81;5074364;28;21005;-36
2022/01/03 05:51:38;;;;;;;62.83;35.20;;;;;;;6.68;84.49;96646.25;5061186;28;20445;-37
2022/01/03 05:54:06;;;;;;;61.57;33.10;;;;;;;6.70;83.49;96649.47;5054539;28;20456;-36
2022/01/03 05:56:33;;;;;;;48.00;25.13;;;;;;;6.73;83.16;96652.50;5054580;28;20447;-37
2022/01/03 05:59:00;;;;;;;51.50;27.00;;;;;;;6.73;82.51;96646.41;5054625;28;20490;-37
2022/01/03 06:01:29;;;;;;;31.23;17.77;;;;;;;6.69;82.96;96642.56;5054155;28;20523;-36
2022/01/03 06:04:00;;;;;;;31.93;19.07;;;;;;;6.78;83.84;96651.84;5054554;28;20444;-36
2022/01/03 06:06:53;;;;;;;32.30;18.30;;;;;;;6.83;83.46;96641.44;5054123;28;20433;-37
2022/01/03 06:09:19;;;;;;;25.50;17.87;;;;;;;6.87;82.81;96649.75;5053932;28;20522;-37
2022/01/03 06:11:47;;;;;;;22.90;13.80;;;;;;;6.99;80.43;96663.88;5054062;28;20449;-36
2022/01/03 06:14:16;;;;;;;33.43;15.70;;;;;;;7.21;77.33;96664.28;5053819;28;20469;-36
2022/01/03 06:16:45;;;;;;;41.10;23.73;;;;;;;7.28;78.92;96664.19;5054308;28;20429;-37
2022/01/03 06:19:13;;;;;;;53.23;29.63;;;;;;;7.24;81.00;96677.03;5054240;28;20478;-36
2022/01/03 06:21:41;;;;;;;67.47;35.03;;;;;;;7.22;81.73;96668.50;5054148;28;20806;-36
2022/01/03 06:24:09;;;;;;;51.77;29.33;;;;;;;7.20;81.80;96661.84;5054146;28;20523;-34
2022/01/03 06:26:38;;;;;;;63.43;41.57;;;;;;;7.20;82.29;96665.28;5053846;28;20436;-34
2022/01/03 06:29:05;;;;;;;72.30;41.20;;;;;;;7.22;83.16;96676.44;5053925;28;20484;-33
2022/01/03 06:31:33;;;;;;;61.97;45.90;;;;;;;7.24;81.95;96670.94;5053754;28;20441;-35
2022/01/03 06:34:02;;;;;;;43.90;27.53;;;;;;;7.24;79.86;96677.03;5053539;28;20436;-34
2022/01/03 06:36:29;;;;;;;36.50;20.47;;;;;;;7.30;80.94;96676.16;5053683;28;20464;-35
2022/01/03 06:38:57;;;;;;;34.60;20.90;;;;;;;7.36;80.89;96680.56;5053612;28;20448;-35
2022/01/03 06:41:24;;;;;;;27.43;16.87;;;;;;;7.44;81.43;96689.22;5053514;28;20480;-36
2022/01/03 06:43:52;;;;;;;29.57;19.67;;;;;;;7.49;80.88;96684.13;5056073;28;20541;-36
2022/01/03 06:46:19;;;;;;;31.43;21.27;;;;;;;7.54;78.88;96681.63;5052789;28;20448;-36
2022/01/03 06:48:47;;;;;;;27.53;14.30;;;;;;;7.62;76.73;96683.97;5053029;28;20488;-36
2022/01/03 06:51:16;;;;;;;32.33;18.53;;;;;;;7.79;76.07;96681.56;5052947;28;20503;-35
2022/01/03 06:53:44;;;;;;;44.57;22.53;;;;;;;8.00;75.30;96690.84;5053106;28;20445;-38
2022/01/03 06:56:12;;;;;;;44.83;21.37;;;;;;;8.15;73.41;96693.09;5052838;28;20441;-36
2022/01/03 06:58:41;;;;;;;31.90;16.97;;;;;;;8.29;73.48;96696.41;5051768;28;20445;-33
2022/01/03 07:01:09;;;;;;;30.93;18.97;;;;;;;8.54;72.21;96698.91;5052619;28;20449;-34
2022/01/03 07:03:36;;;;;;;27.67;16.70;;;;;;;8.82;71.18;96698.31;5053237;28;20451;-36
2022/01/03 07:06:03;;;;;;;25.87;13.37;;;;;;;8.98;70.54;96707.44;5053227;28;20445;-35
2022/01/03 07:08:32;;;;;;;31.67;17.47;;;;;;;9.15;70.86;96704.94;5053465;28;20921;-36
2022/01/03 07:11:00;;;;;;;42.43;20.60;;;;;;;9.42;70.14;96708.75;5053546;28;20467;-34
2022/01/03 07:13:29;;;;;;;34.47;19.63;;;;;;;9.72;69.75;96717.59;5053120;28;20803;-34
2022/01/03 07:19:00;;;;;;;22.10;13.87;;;;;;;10.24;69.33;96689.22;5053465;28;20563;-35
2022/01/03 07:21:29;;;;;;;24.57;14.23;;;;;;;10.75;67.83;96710.59;5053186;28;20436;-35
2022/01/03 07:23:59;;;;;;;25.60;16.47;;;;;;;10.93;66.18;96701.63;5053287;28;20543;-35
2022/01/03 07:26:27;;;;;;;15.77;10.90;;;;;;;11.16;69.93;96697.19;5053065;28;20529;-34
2022/01/03 07:28:55;;;;;;;22.73;12.70;;;;;;;11.55;72.21;96703.38;5052498;28;20488;-34
2022/01/03 07:31:22;;;;;;;20.83;10.00;;;;;;;11.79;65.95;96703.16;5053043;28;20452;-35
2022/01/03 07:33:49;;;;;;;17.50;9.63;;;;;;;12.05;66.44;96696.34;5053357;28;20437;-36
2022/01/03 07:36:17;;;;;;;20.63;10.47;;;;;;;12.31;64.89;96693.97;5052963;28;20440;-37
2022/01/03 07:38:46;;;;;;;20.87;9.33;;;;;;;12.50;63.85;96697.91;5053004;28;20452;-37
2022/01/03 07:41:16;;;;;;;23.27;14.30;;;;;;;12.65;63.14;96697.25;5052869;28;20472;-37
2022/01/03 07:43:44;;;;;;;20.90;14.00;;;;;;;12.81;63.22;96687.53;5052942;28;20971;-37
2022/01/03 07:46:11;;;;;;;12.30;10.80;;;;;;;12.96;63.56;96685.00;5053188;28;20448;-37
2022/01/03 07:48:38;;;;;;;19.70;12.07;;;;;;;13.06;63.14;96687.75;5056856;28;20469;-37
2022/01/03 07:51:06;;;;;;;25.50;13.47;;;;;;;13.06;62.38;96661.09;5056762;28;20813;-37
2022/01/03 07:53:33;;;;;;;21.53;11.43;;;;;;;13.25;62.44;96677.50;5057000;28;20455;-38
2022/01/03 07:56:00;;;;;;;11.53;7.20;;;;;;;13.34;60.49;96664.53;5056996;28;20770;-38
2022/01/03 07:58:29;;;;;;;22.73;11.57;;;;;;;13.46;60.57;96667.78;5056908;28;20452;-37
2022/01/03 08:00:56;;;;;;;14.40;8.73;;;;;;;13.58;59.57;96669.47;5056532;28;20966;-37
2022/01/03 08:03:23;;;;;;;13.70;4.63;;;;;;;13.71;59.32;96664.47;5056484;28;20444;-37
2022/01/03 08:05:51;;;;;;;7.13;3.27;;;;;;;13.75;58.80;96662.09;5056839;28;20444;-37
2022/01/03 08:08:18;;;;;;;4.60;4.20;;;;;;;13.81;58.66;96657.56;5056468;28;20440;-36
2022/01/03 08:10:46;;;;;;;11.87;6.10;;;;;;;13.86;58.66;96649.59;5056331;28;20495;-36
2022/01/03 08:13:14;;;;;;;8.70;4.70;;;;;;;13.84;58.82;96652.53;5056247;28;20440;-37
2022/01/03 08:15:43;;;;;;;5.33;4.73;;;;;;;13.68;59.61;96632.16;5056093;28;20991;-37
2022/01/03 08:18:10;;;;;;;11.77;4.87;;;;;;;13.77;60.23;96657.31;5056201;28;20539;-37
2022/01/03 08:20:37;;;;;;;12.10;5.70;;;;;;;13.78;59.99;96652.78;5056471;28;20447;-36
2022/01/03 08:23:05;;;;;;;21.73;7.60;;;;;;;13.96;59.63;96659.50;5056989;28;20455;-36
2022/01/03 08:25:37;;;;;;;25.03;12.40;;;;;;;14.08;58.29;96642.22;5056379;28;20855;-34
2022/01/03 08:28:05;;;;;;;19.90;11.63;;;;;;;14.28;56.56;96657.50;5056093;28;20521;-36
2022/01/03 08:30:33;;;;;;;16.40;8.57;;;;;;;14.44;55.37;96650.31;5056336;28;20492;-37
2022/01/03 08:33:02;;;;;;;7.87;5.73;;;;;;;14.64;54.94;96657.59;5055892;28;20441;-35
2022/01/03 08:35:29;;;;;;;9.80;5.33;;;;;;;14.88;54.56;96652.53;5055933;28;20536;-37
2022/01/03 08:37:57;;;;;;;13.07;6.80;;;;;;;15.06;53.82;96645.06;5055809;28;20445;-38
2022/01/03 08:40:28;;;;;;;5.77;5.17;;;;;;;15.14;53.93;96631.13;5058215;28;20449;-38
2022/01/03 08:42:55;;;;;;;8.50;3.83;;;;;;;15.17;52.79;96640.50;5076051;28;20470;-38
2022/01/03 08:45:22;;;;;;;5.47;3.30;;;;;;;15.23;53.91;96650.09;5075979;28;20456;-35
2022/01/03 08:47:50;;;;;;;9.10;3.43;;;;;;;15.24;53.22;96636.47;5075521;28;20440;-35
2022/01/03 08:50:19;;;;;;;16.57;11.10;;;;;;;15.33;53.12;96634.03;5075534;28;20844;-34
2022/01/03 08:52:46;;;;;;;13.80;9.57;;;;;;;15.34;52.27;96627.66;5075940;28;20448;-37
2022/01/03 08:55:13;;;;;;;15.83;8.70;;;;;;;15.36;53.23;96630.84;5075511;28;20444;-36
2022/01/03 08:57:42;;;;;;;5.87;4.00;;;;;;;15.31;52.60;96615.59;5076263;28;20450;-37
2022/01/03 09:00:10;;;;;;;7.10;5.77;;;;;;;15.11;53.21;96595.03;5075719;28;20447;-37
2022/01/03 09:02:37;;;;;;;5.57;4.53;;;;;;;15.10;52.10;96614.84;5075737;28;20452;-37
2022/01/03 09:05:06;;;;;;;7.33;3.70;;;;;;;15.03;51.52;96608.16;5075339;28;20477;-37
2022/01/03 09:07:36;;;;;;;10.70;6.67;;;;;;;14.92;52.98;96605.47;5075322;28;20436;-36
2022/01/03 09:10:03;;;;;;;12.00;5.53;;;;;;;14.77;52.93;96572.63;5075221;28;20492;-36
2022/01/03 09:12:31;;;;;;;5.87;4.17;;;;;;;14.93;53.38;96614.31;5075220;28;20444;-37
2022/01/03 09:14:58;;;;;;;4.83;3.03;;;;;;;14.95;51.71;96606.84;5075487;28;20467;-36
2022/01/03 09:17:26;;;;;;;12.73;4.10;;;;;;;15.10;52.46;96609.50;5075137;28;20538;-36
2022/01/03 09:19:54;;;;;;;6.73;3.93;;;;;;;15.31;52.39;96598.75;5075014;28;20534;-36
2022/01/03 09:22:26;;;;;;;11.53;4.10;;;;;;;15.44;51.10;96597.38;5075022;28;20482;-36
2022/01/03 09:28:48;;;;;;;4.63;3.43;;;;;;;15.56;50.56;96601.34;5075320;28;20436;-36
2022/01/03 12:04:41;;;;;;;7.97;4.33;;;;;;;17.08;37.27;96441.72;4563867;31;20229;-35
2022/01/03 12:07:10;;;;;;;6.20;4.10;;;;;;;17.06;35.93;96432.38;4562052;31;20498;-34
2022/01/03 12:09:40;;;;;;;5.60;3.40;;;;;;;17.07;37.34;96434.75;4560232;31;21096;-37
2022/01/03 12:12:09;;;;;;;10.53;6.00;;;;;;;17.12;37.01;96433.88;4611123;30;20456;-36
2022/01/03 12:14:44;;;;;;;2.57;1.90;;;;;;;17.14;37.10;96439.75;4678991;30;20533;-37
2022/01/03 12:17:12;;;;;;;4.20;2.43;;;;;;;17.26;37.50;96442.03;4754933;29;20887;-35
2022/01/03 12:19:43;;;;;;;2.90;2.70;;;;;;;17.33;36.84;96453.22;4850485;29;20459;-35
2022/01/03 12:22:21;;;;;;;2.90;2.50;;;;;;;17.37;37.47;96448.88;4937728;28;20861;-36
2022/01/03 12:24:57;;;;;;;4.90;4.17;;;;;;;17.33;37.39;96439.78;4996884;28;20427;-36
2022/01/03 12:27:39;;;;;;;7.83;3.27;;;;;;;17.40;38.00;96442.91;4996909;28;20467;-36
2022/01/03 12:30:18;;;;;;;2.83;1.93;;;;;;;17.46;37.19;96462.44;4996967;28;20487;-33
2022/01/03 12:33:13;;;;;;;2.17;1.90;;;;;;;17.48;37.62;96450.31;4996002;28;20527;-33
2022/01/03 12:35:44;;;;;;;4.40;1.57;;;;;;;17.42;36.89;96456.84;4996995;28;20832;-35
2022/01/03 12:38:22;;;;;;;3.40;1.90;;;;;;;17.37;37.36;96455.03;4996527;28;20518;-33
2022/01/03 12:41:01;;;;;;;9.60;3.23;;;;;;;17.32;37.61;96441.69;4996592;28;20438;-35
2022/01/03 12:43:50;;;;;;;3.87;3.47;;;;;;;17.40;36.91;96446.41;4996879;28;20436;-35
2022/01/03 12:46:27;;;;;;;4.90;2.73;;;;;;;17.41;37.65;96441.84;5019830;28;20477;-33
2022/01/03 12:48:55;;;;;;;9.93;5.60;;;;;;;17.38;37.64;96434.38;5035769;28;20438;-34
2022/01/03 12:51:36;;;;;;;7.47;5.37;;;;;;;17.29;38.55;96442.25;5035866;28;20489;-34
2022/01/03 12:54:07;;;;;;;7.27;5.63;;;;;;;17.29;37.98;96446.81;5035632;28;20796;-33
2022/01/03 12:56:34;;;;;;;4.93;3.97;;;;;;;17.27;37.93;96446.31;5035727;28;20469;-35
2022/01/03 12:59:13;;;;;;;2.37;2.17;;;;;;;17.26;37.05;96445.50;5035928;28;20528;-33
2022/01/03 13:01:41;;;;;;;3.77;2.60;;;;;;;17.23;37.84;96447.97;5035811;28;20852;-35
2022/01/03 13:04:22;;;;;;;3.47;2.37;;;;;;;17.22;37.97;96435.66;5035435;28;20442;-33
2022/01/03 13:06:51;;;;;;;4.87;2.90;;;;;;;17.15;38.60;96436.78;5035429;28;20922;-33
2022/01/03 13:09:19;;;;;;;7.07;4.33;;;;;;;17.15;38.65;96441.38;5035660;28;20782;-34
2022/01/03 13:11:49;;;;;;;12.97;8.23;;;;;;;16.96;37.95;96419.88;5035210;28;21016;-35
2022/01/03 13:14:20;;;;;;;8.60;3.37;;;;;;;17.05;38.21;96447.63;5035237;28;20532;-34
2022/01/03 13:16:49;;;;;;;4.17;3.00;;;;;;;17.09;38.57;96454.03;5035543;28;20429;-34
2022/01/03 13:19:19;;;;;;;3.87;2.83;;;;;;;17.09;37.95;96443.31;5035232;28;20926;-35
2022/01/03 13:21:49;;;;;;;11.90;6.83;;;;;;;17.12;38.91;96447.28;5035142;28;20815;-34
2022/01/03 13:24:21;;;;;;;2.50;1.70;;;;;;;17.13;38.62;96435.50;5035160;28;20800;-34
2022/01/03 13:26:57;;;;;;;2.40;2.20;;;;;;;17.09;37.90;96437.94;5035096;28;20422;-35
2022/01/03 13:29:26;;;;;;;6.50;4.43;;;;;;;17.05;38.44;96446.84;5035410;28;20898;-36
2022/01/03 13:31:54;;;;;;;6.40;3.33;;;;;;;17.02;38.54;96448.22;5034822;28;20503;-35
2022/01/03 13:34:23;;;;;;;13.10;4.93;;;;;;;17.03;39.16;96443.66;5034995;28;20449;-36
2022/01/03 13:36:51;;;;;;;5.50;2.60;;;;;;;16.90;38.41;96434.41;5034829;28;20482;-36
2022/01/03 13:39:23;;;;;;;4.80;3.40;;;;;;;16.99;38.74;96448.78;5034794;28;20446;-36
2022/01/03 13:41:53;;;;;;;3.63;3.03;;;;;;;16.96;37.97;96449.34;5034782;28;20434;-36
2022/01/03 13:44:45;;;;;;;5.23;3.57;;;;;;;16.93;40.01;96457.97;5034860;28;20472;-36
2022/01/03 13:50:00;;;;;;;10.23;5.20;;;;;;;16.80;38.81;96464.81;5034931;28;20409;-36
2022/01/03 13:52:30;;;;;;;4.70;3.60;;;;;;;16.77;39.49;96468.81;5034892;28;20437;-36
2022/01/03 13:55:02;;;;;;;7.73;5.10;;;;;;;16.72;40.27;96463.50;5048212;28;20452;-37
2022/01/03 13:57:33;;;;;;;9.83;6.47;;;;;;;16.59;40.03;96466.88;5054680;28;20479;-37
2022/01/03 14:00:01;;;;;;;7.67;4.47;;;;;;;16.59;39.94;96467.66;5054610;28;20794;-36
2022/01/03 14:02:28;;;;;;;3.77;3.13;;;;;;;16.54;40.22;96469.56;5054509;28;20456;-36
2022/01/03 14:04:57;;;;;;;6.87;6.00;;;;;;;16.46;40.47;96472.88;5054533;28;20440;-36
2022/01/03 14:07:24;;;;;;;8.43;4.10;;;;;;;16.38;40.21;96467.03;5054092;28;20920;-36
2022/01/03 14:09:57;;;;;;;4.53;3.87;;;;;;;16.33;40.80;96475.13;5054115;28;20448;-36
2022/01/03 14:12:27;;;;;;;9.43;4.20;;;;;;;16.31;40.73;96471.94;5054349;28;20796;-36
2022/01/03 14:14:57;;;;;;;11.83;5.27;;;;;;;16.20;40.68;96464.25;5054410;28;20452;-36
2022/01/03 14:17:25;;;;;;;7.37;4.77;;;;;;;16.18;41.43;96472.56;5053933;28;20441;-36
2022/01/03 14:20:03;;;;;;;6.43;3.23;;;;;;;16.11;41.00;96474.75;5054239;28;20444;-36
2022/01/03 14:22:35;;;;;;;7.43;5.70;;;;;;;15.85;41.34;96447.38;5053911;28;20925;-36
2022/01/03 14:25:07;;;;;;;9.17;4.50;;;;;;;15.93;41.40;96484.25;5053791;28;20835;-37